Terminal Aerodrome Forecast
Issued by NWS

Home | Current Version | Previous Version | Graphics & Text | Print | Product List | Glossary On
Versions: 1 2 3 4 5 6 7 8 9 10 11 12 13 14 15 16 17 18
634
FTUS43 KBIS 232327
TAFJMS
TAF
KJMS 232327Z 2400/2424 26007KT P6SM SKC
     FM241000 18006KT P6SM FEW250
     FM241800 17009KT 4SM -SN OVC035
     FM242000 16008KT 1 1/2SM -SN OVC010=

USA.gov is the U.S. government's official web portal to all federal, state and local government web resources and services.